createdAt,value
2019-04-10T00:01:23.545Z,69.30
2019-04-10T00:03:52.532Z,69.60
2019-04-10T00:06:21.697Z,68.90
2019-04-10T00:08:50.625Z,68.90
2019-04-10T00:11:19.374Z,68.70
2019-04-10T00:13:49.037Z,68.20
2019-04-10T00:16:18.142Z,68.50
2019-04-10T00:18:47.008Z,68.70
2019-04-10T00:21:15.797Z,69.10
2019-04-10T00:23:44.462Z,69.50
2019-04-10T00:26:13.248Z,69.50
2019-04-10T00:28:41.989Z,69.50
2019-04-10T00:31:10.743Z,69.70
2019-04-10T00:33:39.506Z,69.20
2019-04-10T00:36:08.360Z,69.00
2019-04-10T00:38:37.975Z,69.20
2019-04-10T00:41:06.607Z,69.60
2019-04-10T00:43:35.363Z,70.10
2019-04-10T00:46:04.134Z,70.90
2019-04-10T00:48:32.905Z,71.60
2019-04-10T00:51:01.591Z,71.90
2019-04-10T00:53:30.350Z,72.70
2019-04-10T00:56:01.993Z,73.00
2019-04-10T00:58:30.784Z,73.70
2019-04-10T01:00:59.546Z,74.00
2019-04-10T01:03:43.728Z,74.00
2019-04-10T01:06:13.686Z,74.40
2019-04-10T01:08:42.766Z,74.50
2019-04-10T01:11:11.756Z,74.20
2019-04-10T01:13:41.129Z,74.20
2019-04-10T01:16:09.903Z,74.00
2019-04-10T01:18:39.511Z,73.90
2019-04-10T01:21:08.367Z,73.90
2019-04-10T01:23:38.044Z,74.10
2019-04-10T01:26:07.292Z,74.20
2019-04-10T01:28:36.713Z,74.40
2019-04-10T01:31:06.646Z,74.40
2019-04-10T01:33:36.730Z,74.70
2019-04-10T01:36:05.546Z,75.20
2019-04-10T01:38:34.307Z,75.50
2019-04-10T01:41:03.600Z,75.80
2019-04-10T01:43:32.980Z,75.90
2019-04-10T01:46:02.082Z,75.80
2019-04-10T01:48:30.760Z,76.50
2019-04-10T01:50:59.441Z,77.00
2019-04-10T01:53:28.094Z,77.30
2019-04-10T01:55:57.605Z,78.20
2019-04-10T01:58:27.281Z,78.70
2019-04-10T02:00:57.710Z,79.00
2019-04-10T02:03:26.386Z,79.20
2019-04-10T02:05:55.151Z,79.40
2019-04-10T02:08:23.837Z,79.40
2019-04-10T02:10:52.588Z,79.40
2019-04-10T02:13:21.458Z,79.20
2019-04-10T02:15:50.292Z,79.20
2019-04-10T02:18:19.353Z,79.70
2019-04-10T02:20:48.109Z,79.60
2019-04-10T02:23:16.867Z,79.60
2019-04-10T02:25:45.618Z,79.90
2019-04-10T02:28:15.078Z,79.60
2019-04-10T02:30:43.951Z,80.10
2019-04-10T02:33:13.928Z,80.20
2019-04-10T02:35:43.513Z,80.80
2019-04-10T02:38:30.679Z,81.00
2019-04-10T02:40:43.391Z,81.10
2019-04-10T02:43:13.934Z,80.80
2019-04-10T02:45:44.482Z,80.80
2019-04-10T02:48:13.061Z,80.50
2019-04-10T02:50:43.024Z,79.90
2019-04-10T02:53:13.103Z,79.50
2019-04-10T02:55:43.154Z,79.20
2019-04-10T02:58:12.082Z,79.00
2019-04-10T03:00:42.158Z,78.90
2019-04-10T03:03:12.011Z,79.40
2019-04-10T03:05:42.568Z,80.00
2019-04-10T03:08:13.017Z,80.00
2019-04-10T03:10:48.542Z,79.90
2019-04-10T03:13:13.738Z,80.10
2019-04-10T03:15:43.415Z,80.80
2019-04-10T03:18:12.741Z,81.30
2019-04-10T03:20:42.625Z,81.00
2019-04-10T03:23:11.590Z,80.90
2019-04-10T03:25:41.400Z,80.90
2019-04-10T03:28:11.086Z,81.00
2019-04-10T03:30:41.550Z,80.80
2019-04-10T03:33:17.096Z,81.00
2019-04-10T03:35:45.006Z,80.80
2019-04-10T03:38:14.669Z,81.10
2019-04-10T03:40:43.733Z,81.20
2019-04-10T03:43:12.442Z,81.30
2019-04-10T03:45:41.209Z,81.30
2019-04-10T03:48:09.887Z,80.90
2019-04-10T03:50:39.579Z,81.10
2019-04-10T03:53:08.402Z,81.30
2019-04-10T03:55:37.167Z,80.80
2019-04-10T03:58:05.913Z,80.60
2019-04-10T04:00:34.602Z,80.70
2019-04-10T04:03:04.197Z,80.60
2019-04-10T04:05:33.043Z,80.30
2019-04-10T04:08:01.723Z,80.20
2019-04-10T04:10:30.782Z,79.70
2019-04-10T04:13:00.193Z,80.00
2019-04-10T04:15:30.226Z,80.30
2019-04-10T04:17:58.924Z,80.30
2019-04-10T04:20:28.618Z,79.80
2019-04-10T04:22:57.400Z,79.30
2019-04-10T04:25:26.145Z,78.90
2019-04-10T04:27:54.776Z,79.20
2019-04-10T04:30:24.585Z,79.60
2019-04-10T04:32:53.920Z,79.40
2019-04-10T04:35:22.707Z,79.00
2019-04-10T04:37:52.633Z,79.00
2019-04-10T04:40:21.759Z,79.00
2019-04-10T04:42:51.388Z,79.00
2019-04-10T04:45:20.198Z,79.30
2019-04-10T04:47:48.820Z,79.50
2019-04-10T04:50:17.817Z,78.90
2019-04-10T04:52:46.629Z,78.90
2019-04-10T04:55:15.309Z,78.50
2019-04-10T04:57:44.962Z,77.90
2019-04-10T05:00:15.226Z,77.40
2019-04-10T05:02:44.781Z,77.40
2019-04-10T05:05:14.325Z,77.30
2019-04-10T05:07:54.105Z,76.70
2019-04-10T05:10:13.529Z,76.40
2019-04-10T05:12:43.534Z,75.80
2019-04-10T05:15:12.934Z,75.40
2019-04-10T05:17:41.738Z,74.90
2019-04-10T05:20:11.195Z,75.10
2019-04-10T05:22:39.887Z,74.20
2019-04-10T05:25:09.033Z,74.00
2019-04-10T05:27:37.734Z,74.60
2019-04-10T05:30:08.491Z,75.10
2019-04-10T05:32:37.554Z,74.80
2019-04-10T05:35:08.558Z,74.30
2019-04-10T05:37:40.152Z,74.30
2019-04-10T05:40:09.802Z,74.00
2019-04-10T05:42:39.416Z,74.00
2019-04-10T05:45:10.867Z,74.10
2019-04-10T05:47:39.698Z,74.30
2019-04-10T05:50:08.973Z,74.40
2019-04-10T05:52:37.690Z,74.60
2019-04-10T05:55:07.081Z,74.40
2019-04-10T05:57:35.719Z,74.40
2019-04-10T06:00:10.397Z,74.40
2019-04-10T06:02:39.829Z,74.40
2019-04-10T06:05:09.757Z,73.60
2019-04-10T06:07:39.249Z,73.40
2019-04-10T06:10:10.251Z,72.80
2019-04-10T06:12:38.635Z,72.10
2019-04-10T06:15:08.002Z,72.50
2019-04-10T06:17:36.700Z,72.30
2019-04-10T06:20:07.137Z,71.80
2019-04-10T06:22:36.870Z,71.70
2019-04-10T06:25:08.546Z,71.20
2019-04-10T06:27:36.810Z,71.00
2019-04-10T06:30:09.961Z,69.90
2019-04-10T06:32:39.657Z,69.70
2019-04-10T06:35:08.906Z,69.20
2019-04-10T06:37:38.029Z,69.30
2019-04-10T06:40:14.235Z,68.90
2019-04-10T06:42:46.611Z,67.90
2019-04-10T06:45:09.318Z,67.50
2019-04-10T06:47:38.284Z,67.40
2019-04-10T06:50:07.595Z,67.30
2019-04-10T06:52:36.353Z,66.80
2019-04-10T06:55:06.312Z,66.30
2019-04-10T06:57:47.647Z,66.40
2019-04-10T07:00:12.209Z,65.70
2019-04-10T07:02:38.948Z,65.40
2019-04-10T07:05:10.440Z,64.80
2019-04-10T07:07:49.617Z,64.70
2019-04-10T07:10:20.214Z,63.50
2019-04-10T07:12:39.733Z,63.80
2019-04-10T07:15:08.936Z,63.20
2019-04-10T07:17:41.860Z,62.80
2019-04-10T07:20:12.068Z,62.10
2019-04-10T07:22:46.582Z,63.40
2019-04-10T07:25:12.851Z,63.10
2019-04-10T07:27:41.922Z,61.90
2019-04-10T07:30:11.905Z,61.00
2019-04-10T07:32:44.211Z,60.60
2019-04-10T07:35:13.945Z,60.40
2019-04-10T07:37:42.437Z,60.10
2019-04-10T07:40:12.244Z,59.70
2019-04-10T07:42:42.823Z,59.30
2019-04-10T07:45:11.661Z,59.50
2019-04-10T07:47:40.357Z,58.60
2019-04-10T07:50:10.317Z,58.60
2019-04-10T07:52:39.253Z,58.00
2019-04-10T07:55:08.596Z,57.20
2019-04-10T07:57:38.398Z,57.30
2019-04-10T08:00:09.401Z,57.60
2019-04-10T08:02:42.727Z,54.30
2019-04-10T08:05:12.290Z,54.80
2019-04-10T08:07:41.051Z,53.60
2019-04-10T08:10:10.119Z,54.40
2019-04-10T08:12:46.857Z,54.00
2019-04-10T08:15:09.568Z,53.30
2019-04-10T08:17:39.024Z,52.40
2019-04-10T08:20:08.119Z,51.90
2019-04-10T08:22:37.174Z,52.60
2019-04-10T08:25:08.920Z,52.80
2019-04-10T08:27:38.486Z,51.80
2019-04-10T08:30:10.857Z,50.90
2019-04-10T08:32:51.429Z,50.40
2019-04-10T08:35:09.166Z,49.70
2019-04-10T08:37:39.041Z,49.80
2019-04-10T08:40:09.616Z,51.10
2019-04-10T08:42:40.202Z,49.30
2019-04-10T08:45:09.254Z,50.00
2019-04-10T08:47:38.012Z,51.00
2019-04-10T08:50:07.816Z,51.30
2019-04-10T08:52:37.041Z,50.70
2019-04-10T08:55:06.126Z,50.30
2019-04-10T08:57:35.903Z,49.80
2019-04-10T09:00:08.009Z,50.30
2019-04-10T09:02:39.765Z,50.20
2019-04-10T09:05:09.205Z,50.80
2019-04-10T09:07:38.294Z,51.20
2019-04-10T09:10:08.125Z,51.80
2019-04-10T09:12:36.860Z,52.40
2019-04-10T09:15:07.665Z,52.10
2019-04-10T09:17:37.513Z,52.20
2019-04-10T09:20:08.785Z,52.50
2019-04-10T09:23:05.818Z,51.20
2019-04-10T09:25:09.159Z,51.10
2019-04-10T09:27:37.946Z,51.10
2019-04-10T09:30:08.830Z,50.70
2019-04-10T09:32:37.588Z,52.00
2019-04-10T09:35:08.919Z,50.90
2019-04-10T09:37:38.139Z,50.30
2019-04-10T09:40:07.980Z,49.70
2019-04-10T09:42:36.902Z,49.80
2019-04-10T09:45:06.012Z,49.40
2019-04-10T09:47:34.870Z,47.60
2019-04-10T09:50:05.577Z,47.30
2019-04-10T09:52:35.496Z,46.90
2019-04-10T09:55:05.476Z,47.90
2019-04-10T09:57:34.623Z,47.30
2019-04-10T10:00:03.885Z,47.50
2019-04-10T10:02:33.461Z,46.60
2019-04-10T10:05:02.398Z,46.00
2019-04-10T10:07:31.168Z,45.20
2019-04-10T10:10:01.311Z,43.90
2019-04-10T10:12:30.279Z,43.60
2019-04-10T10:15:00.122Z,43.80
2019-04-10T10:17:28.845Z,43.50
2019-04-10T10:19:57.555Z,42.70
2019-04-10T10:22:27.646Z,42.50
2019-04-10T10:24:57.710Z,42.60
2019-04-10T10:27:26.809Z,43.60
2019-04-10T10:29:56.064Z,44.40
2019-04-10T10:32:24.888Z,45.50
2019-04-10T10:34:54.550Z,44.00
2019-04-10T10:37:24.894Z,43.70
2019-04-10T10:39:53.682Z,43.00
2019-04-10T10:42:23.514Z,43.40
2019-04-10T10:44:52.286Z,44.60
2019-04-10T10:47:22.160Z,43.50
2019-04-10T10:49:50.922Z,42.40
2019-04-10T10:52:19.740Z,41.90
2019-04-10T10:54:49.307Z,43.30
2019-04-10T10:57:19.154Z,45.00
2019-04-10T10:59:48.006Z,44.80
2019-04-10T11:02:17.089Z,44.90
2019-04-10T11:04:45.874Z,43.80
2019-04-10T11:07:14.630Z,44.10
2019-04-10T11:09:44.445Z,45.10
2019-04-10T11:12:13.592Z,45.60
2019-04-10T11:14:43.584Z,45.20
2019-04-10T11:17:13.457Z,42.00
2019-04-10T11:19:43.482Z,41.60
2019-04-10T11:22:14.055Z,39.50
2019-04-10T11:24:44.418Z,37.50
2019-04-10T11:27:14.306Z,38.50
2019-04-10T11:29:45.272Z,37.20
2019-04-10T11:32:14.397Z,37.40
2019-04-10T11:34:43.280Z,36.20
2019-04-10T11:37:23.389Z,35.30
2019-04-10T11:39:44.953Z,35.50
2019-04-10T11:42:12.761Z,37.50
2019-04-10T11:44:45.110Z,39.80
2019-04-10T11:47:12.487Z,40.80
2019-04-10T11:49:43.385Z,42.10
2019-04-10T11:52:14.509Z,43.10
2019-04-10T11:54:45.999Z,42.90
2019-04-10T11:57:13.302Z,39.10
2019-04-10T11:59:44.855Z,39.40
2019-04-10T12:02:14.436Z,40.10
2019-04-10T12:04:53.108Z,39.20
2019-04-10T12:07:53.039Z,39.10
2019-04-10T12:12:19.531Z,41.10
2019-04-10T12:14:48.194Z,40.50
2019-04-10T12:17:17.886Z,42.10
2019-04-10T12:19:46.771Z,43.80
2019-04-10T12:25:37.295Z,45.40
2019-04-10T12:28:06.051Z,50.70
2019-04-10T12:30:35.294Z,51.10
2019-04-10T12:33:05.293Z,52.10
2019-04-10T12:35:34.110Z,51.70
2019-04-10T12:38:07.006Z,53.80
2019-04-10T12:40:33.127Z,54.80
2019-04-10T12:43:02.896Z,56.90
2019-04-10T12:45:32.627Z,58.80
2019-04-10T12:48:02.132Z,65.50
2019-04-10T12:50:31.011Z,69.70
2019-04-10T12:52:59.656Z,67.70
2019-04-10T12:55:28.539Z,67.80
2019-04-10T12:58:06.495Z,71.50
2019-04-10T13:00:28.134Z,69.50
2019-04-10T13:02:57.128Z,60.50
2019-04-10T13:05:27.378Z,63.90
2019-04-10T13:08:06.414Z,73.00
2019-04-10T13:10:29.592Z,71.70
2019-04-10T13:12:58.395Z,79.70
2019-04-10T13:15:27.603Z,83.30
2019-04-10T13:17:57.508Z,82.70
2019-04-10T13:20:27.115Z,86.30
2019-04-10T13:22:56.270Z,87.70
2019-04-10T13:25:25.966Z,90.00
2019-04-10T13:27:54.875Z,90.20
2019-04-10T13:30:23.720Z,86.20
2019-04-10T13:32:52.688Z,83.90
2019-04-10T13:35:22.001Z,86.00
2019-04-10T13:37:50.719Z,85.30
2019-04-10T13:40:19.527Z,88.40
2019-04-10T13:42:48.157Z,88.40
2019-04-10T13:45:17.891Z,87.20
2019-04-10T13:47:47.075Z,89.60
2019-04-10T13:50:17.159Z,84.80
2019-04-10T13:52:50.471Z,82.90
2019-04-10T13:55:18.951Z,83.40
2019-04-10T13:57:47.790Z,82.90
2019-04-10T14:00:28.602Z,79.50
2019-04-10T14:02:58.241Z,79.10
2019-04-10T14:05:27.673Z,79.70
2019-04-10T14:07:56.392Z,79.70
2019-04-10T14:10:25.180Z,81.50
2019-04-10T14:12:53.982Z,83.20
2019-04-10T14:15:24.346Z,82.10
2019-04-10T14:17:54.144Z,83.00
2019-04-10T14:20:23.656Z,79.30
2019-04-10T14:23:12.566Z,84.50
2019-04-10T14:25:44.099Z,83.20
2019-04-10T14:28:13.119Z,84.70
2019-04-10T14:30:43.571Z,80.70
2019-04-10T14:33:12.958Z,83.30
2019-04-10T14:35:41.657Z,77.80
2019-04-10T14:38:10.696Z,71.10
2019-04-10T14:40:40.138Z,70.90
2019-04-10T14:43:08.920Z,71.40
2019-04-10T14:45:37.564Z,69.60
2019-04-10T14:48:07.796Z,70.40
2019-04-10T14:50:36.638Z,69.40
2019-04-10T14:53:05.618Z,72.10
2019-04-10T14:55:35.479Z,66.80
2019-04-10T14:58:05.530Z,67.60
2019-04-10T15:00:41.779Z,66.20
2019-04-10T15:03:10.501Z,65.90
2019-04-10T15:05:47.799Z,63.40
2019-04-10T15:08:09.799Z,63.60
2019-04-10T15:10:38.549Z,62.00
2019-04-10T15:13:13.139Z,61.20
2019-04-10T15:15:38.621Z,63.40
2019-04-10T15:18:08.741Z,61.70
2019-04-10T15:20:37.703Z,65.90
2019-04-10T15:23:07.751Z,66.70
2019-04-10T15:25:37.430Z,66.50
2019-04-10T15:28:06.458Z,63.00
2019-04-10T15:30:35.336Z,57.70
2019-04-10T15:33:04.586Z,56.60
2019-04-10T15:35:33.516Z,54.60
2019-04-10T15:38:02.353Z,53.40
2019-04-10T15:40:32.262Z,52.70
2019-04-10T15:43:01.000Z,55.40
2019-04-10T15:45:30.248Z,56.10
2019-04-10T15:48:00.511Z,56.00
2019-04-10T15:50:30.415Z,56.50
2019-04-10T15:52:59.952Z,54.70
2019-04-10T15:55:29.877Z,54.70
2019-04-10T15:58:01.215Z,56.40
2019-04-10T16:00:29.467Z,56.50
2019-04-10T16:02:58.254Z,56.90
2019-04-10T16:05:26.914Z,57.80
2019-04-10T16:07:55.566Z,58.10
2019-04-10T16:10:25.994Z,58.10
2019-04-10T16:12:55.527Z,58.10
2019-04-10T16:15:25.097Z,57.80
2019-04-10T16:17:58.838Z,57.50
2019-04-10T16:20:29.440Z,57.90
2019-04-10T16:23:02.651Z,58.60
2019-04-10T16:25:31.355Z,58.40
2019-04-10T16:28:02.124Z,58.70
2019-04-10T16:30:30.987Z,59.00
2019-04-10T16:33:00.707Z,59.70
2019-04-10T16:35:29.639Z,60.30
2019-04-10T16:38:00.203Z,61.20
2019-04-10T16:40:29.942Z,61.20
2019-04-10T16:42:59.332Z,58.10
2019-04-10T16:45:28.688Z,58.50
2019-04-10T16:47:57.338Z,59.30
2019-04-10T16:50:26.074Z,59.40
2019-04-10T16:52:55.617Z,58.80
2019-04-10T16:55:24.896Z,58.00
2019-04-10T16:57:53.618Z,57.40
2019-04-10T17:00:23.606Z,57.70
2019-04-10T17:02:52.717Z,57.50
2019-04-10T17:05:22.628Z,56.80
2019-04-10T17:07:51.644Z,57.40
2019-04-10T17:10:24.429Z,57.10
2019-04-10T17:12:51.936Z,57.40
2019-04-10T17:15:20.891Z,57.60
2019-04-10T17:17:50.598Z,57.80
2019-04-10T17:20:20.347Z,58.10
2019-04-10T17:22:49.757Z,58.20
2019-04-10T17:25:18.626Z,58.30
2019-04-10T17:27:47.939Z,59.00
2019-04-10T17:30:17.800Z,58.50
2019-04-10T17:32:46.639Z,58.50
2019-04-10T17:35:15.923Z,58.60
2019-04-10T17:37:45.707Z,58.90
2019-04-10T17:40:27.415Z,59.00
2019-04-10T17:42:46.346Z,59.40
2019-04-10T17:45:15.945Z,60.40
2019-04-10T17:47:45.754Z,60.00
2019-04-10T17:50:18.407Z,60.20
2019-04-10T17:52:47.300Z,60.20
2019-04-10T17:55:15.974Z,60.10
2019-04-10T17:57:46.119Z,60.20
2019-04-10T18:00:22.961Z,60.50
2019-04-10T18:02:51.900Z,61.10
2019-04-10T18:05:20.553Z,61.50
2019-04-10T18:07:49.287Z,61.80
2019-04-10T18:10:18.363Z,62.00
2019-04-10T18:12:48.037Z,61.70
2019-04-10T18:15:16.870Z,61.90
2019-04-10T18:17:45.601Z,62.30
2019-04-10T18:20:14.446Z,64.30
2019-04-10T18:22:43.099Z,65.60
2019-04-10T18:25:11.978Z,65.80
2019-04-10T18:27:40.800Z,67.10
2019-04-10T18:30:09.963Z,67.00
2019-04-10T18:32:38.777Z,67.00
2019-04-10T18:35:08.896Z,67.10
2019-04-10T18:37:37.530Z,66.60
2019-04-10T18:40:07.505Z,67.00
2019-04-10T18:42:37.307Z,66.10
2019-04-10T18:45:09.683Z,66.50
2019-04-10T18:47:39.355Z,64.70
2019-04-10T18:50:08.430Z,63.60
2019-04-10T18:52:37.368Z,63.30
2019-04-10T18:55:06.431Z,63.70
2019-04-10T18:57:35.754Z,63.70
2019-04-10T19:00:10.147Z,64.50
2019-04-10T19:02:57.184Z,65.10
2019-04-10T19:05:33.975Z,63.90
2019-04-10T19:08:03.066Z,63.70
2019-04-10T19:10:32.650Z,63.50
2019-04-10T19:13:01.628Z,63.50
2019-04-10T19:15:32.831Z,65.20
2019-04-10T19:18:01.592Z,64.90
2019-04-10T19:20:31.319Z,64.70
2019-04-10T19:23:00.982Z,65.40
2019-04-10T19:25:30.250Z,66.20
2019-04-10T19:28:00.258Z,66.70
2019-04-10T19:30:37.300Z,67.00
2019-04-10T19:33:06.251Z,66.20
2019-04-10T19:35:35.127Z,66.60
2019-04-10T19:38:03.792Z,67.20
2019-04-10T19:40:32.578Z,67.80
2019-04-10T19:43:02.024Z,68.10
2019-04-10T19:45:32.119Z,67.80
2019-04-10T19:48:01.144Z,68.40
2019-04-10T19:50:30.229Z,68.60
2019-04-10T19:52:58.969Z,70.00
2019-04-10T19:55:27.632Z,70.50
2019-04-10T19:57:57.401Z,68.80
2019-04-10T20:00:28.397Z,68.00
2019-04-10T20:02:57.361Z,68.50
2019-04-10T20:05:26.089Z,69.70
2019-04-10T20:07:55.445Z,69.80
2019-04-10T20:10:24.024Z,69.20
2019-04-10T20:12:53.008Z,68.80
2019-04-10T20:15:22.530Z,69.00
2019-04-10T20:17:52.450Z,70.80
2019-04-10T20:20:21.485Z,71.60
2019-04-10T20:22:50.339Z,72.40
2019-04-10T20:25:19.143Z,71.40
2019-04-10T20:27:48.065Z,72.30
2019-04-10T20:30:18.130Z,72.30
2019-04-10T20:32:46.797Z,71.80
2019-04-10T20:35:16.160Z,71.70
2019-04-10T20:37:45.032Z,72.10
2019-04-10T20:40:13.930Z,71.40
2019-04-10T20:42:42.885Z,70.80
2019-04-10T20:45:11.849Z,70.10
2019-04-10T20:47:41.320Z,69.30
2019-04-10T20:50:10.324Z,69.10
2019-04-10T20:52:40.812Z,68.50
2019-04-10T20:55:09.434Z,68.80
2019-04-10T20:57:38.118Z,68.90
2019-04-10T21:00:09.523Z,69.10
2019-04-10T21:02:38.354Z,69.70
2019-04-10T21:05:09.679Z,70.70
2019-04-10T21:07:37.743Z,71.50
2019-04-10T21:10:08.536Z,72.80
2019-04-10T21:12:37.315Z,73.30
2019-04-10T21:15:06.722Z,74.50
2019-04-10T21:17:35.390Z,76.40
2019-04-10T21:20:07.896Z,76.60
2019-04-10T21:22:36.752Z,77.30
2019-04-10T21:25:08.144Z,77.70
2019-04-10T21:27:37.632Z,78.20
2019-04-10T21:30:11.719Z,78.60
2019-04-10T21:32:44.571Z,79.30
2019-04-10T21:35:18.717Z,79.80
2019-04-10T21:37:48.572Z,81.40
2019-04-10T21:40:18.565Z,82.20
2019-04-10T21:42:47.593Z,82.70
2019-04-10T21:45:16.484Z,83.90
2019-04-10T21:47:45.993Z,84.60
2019-04-10T21:50:15.227Z,85.20
2019-04-10T21:52:43.922Z,85.40
2019-04-10T21:55:12.905Z,85.70
2019-04-10T21:57:42.548Z,87.00
2019-04-10T22:00:12.342Z,87.20
2019-04-10T22:02:41.929Z,87.30
2019-04-10T22:05:12.488Z,87.70
2019-04-10T22:07:48.437Z,88.10
2019-04-10T22:10:24.511Z,87.40
2019-04-10T22:12:53.247Z,87.60
2019-04-10T22:15:24.608Z,87.30
2019-04-10T22:17:53.463Z,87.40
2019-04-10T22:20:22.200Z,86.80
2019-04-10T22:22:51.385Z,86.70
2019-04-10T22:25:21.485Z,86.90
2019-04-10T22:27:50.262Z,87.40
2019-04-10T22:30:19.130Z,88.20
2019-04-10T22:32:47.790Z,88.10
2019-04-10T22:35:17.448Z,89.60
2019-04-10T22:37:46.372Z,90.30
2019-04-10T22:40:15.343Z,90.30
2019-04-10T22:42:46.755Z,90.50
2019-04-10T22:45:27.954Z,90.80
2019-04-10T22:47:58.341Z,90.90
2019-04-10T22:50:27.555Z,90.60
2019-04-10T22:52:57.048Z,90.20
2019-04-10T22:55:26.086Z,90.40
2019-04-10T22:57:54.850Z,90.40
2019-04-10T23:00:28.171Z,90.90
2019-04-10T23:02:57.314Z,91.30
2019-04-10T23:05:26.743Z,91.60
2019-04-10T23:07:55.661Z,91.50
2019-04-10T23:10:24.781Z,91.20
2019-04-10T23:13:00.815Z,91.20
2019-04-10T23:15:25.132Z,91.50
2019-04-10T23:17:54.137Z,91.50
2019-04-10T23:20:23.712Z,91.80
2019-04-10T23:22:52.641Z,91.60
2019-04-10T23:25:22.392Z,92.10
2019-04-10T23:27:53.452Z,92.50
2019-04-10T23:30:21.604Z,92.60
2019-04-10T23:32:51.286Z,92.90
2019-04-10T23:35:21.181Z,93.30
2019-04-10T23:37:51.057Z,93.00
2019-04-10T23:40:20.889Z,92.80
2019-04-10T23:43:02.951Z,92.90
2019-04-10T23:45:20.276Z,93.10
2019-04-10T23:47:48.939Z,93.60
2019-04-10T23:50:18.556Z,93.80
2019-04-10T23:55:51.109Z,93.30
2019-04-10T23:58:19.936Z,93.40
